TimeCST,TemperatureF,Dew PointF,Humidity,Sea Level PressureIn,VisibilityMPH,Wind Direction,Wind SpeedMPH,Gust SpeedMPH,PrecipitationIn,Events,Conditions,WindDirDegrees,DateUTC
12:11 AM,-13.0,-25.6,53,30.57,10.0,North,6.9,-,N/A,,Clear,350,2013-01-24 06:11:00
12:31 AM,-13.0,-25.6,53,30.58,10.0,NW,3.5,-,N/A,,Clear,320,2013-01-24 06:31:00
12:51 AM,-13.0,-25.6,53,30.58,10.0,NNW,4.6,-,N/A,,Clear,340,2013-01-24 06:51:00
1:11 AM,-13.0,-25.6,53,30.58,10.0,North,5.8,-,N/A,,Scattered Clouds,350,2013-01-24 07:11:00
1:31 AM,-14.8,-25.6,58,30.58,10.0,North,6.9,-,N/A,,Scattered Clouds,360,2013-01-24 07:31:00
1:51 AM,-14.8,-25.6,58,30.58,10.0,North,5.8,-,N/A,,Scattered Clouds,350,2013-01-24 07:51:00
2:11 AM,-14.8,-25.6,58,30.58,10.0,North,5.8,-,N/A,,Scattered Clouds,10,2013-01-24 08:11:00
2:31 AM,-14.8,-25.6,58,30.59,10.0,NE,3.5,-,N/A,,Clear,50,2013-01-24 08:31:00
2:51 AM,-14.8,-25.6,58,30.58,10.0,North,5.8,-,N/A,,Clear,10,2013-01-24 08:51:00
3:11 AM,-14.8,-27.4,53,30.59,10.0,NE,3.5,-,N/A,,Clear,40,2013-01-24 09:11:00
3:31 AM,-14.8,-25.6,58,30.60,10.0,Calm,Calm,-,N/A,,Clear,0,2013-01-24 09:31:00
3:51 AM,-14.8,-25.6,58,30.60,10.0,Calm,Calm,-,N/A,,Scattered Clouds,0,2013-01-24 09:51:00
4:12 AM,-14.8,-27.4,53,30.60,10.0,Calm,Calm,-,N/A,,Clear,0,2013-01-24 10:12:00
4:31 AM,-16.6,-27.4,58,30.60,10.0,Calm,Calm,-,N/A,,Scattered Clouds,0,2013-01-24 10:31:00
4:51 AM,-16.6,-27.4,58,30.60,10.0,Calm,Calm,-,N/A,,Scattered Clouds,0,2013-01-24 10:51:00
5:11 AM,-16.6,-27.4,58,30.60,10.0,Calm,Calm,-,N/A,,Clear,0,2013-01-24 11:11:00
5:31 AM,-16.6,-25.6,64,30.59,10.0,NNE,3.5,-,N/A,,Clear,20,2013-01-24 11:31:00
5:51 AM,-14.8,-25.6,58,30.59,10.0,North,3.5,-,N/A,,Clear,10,2013-01-24 11:51:00
6:11 AM,-14.8,-25.6,58,30.60,10.0,Calm,Calm,-,N/A,,Clear,0,2013-01-24 12:11:00
6:32 AM,-14.8,-25.6,58,30.60,10.0,Calm,Calm,-,N/A,,Clear,0,2013-01-24 12:32:00
6:51 AM,-14.8,-25.6,58,30.61,10.0,Calm,Calm,-,N/A,,Clear,0,2013-01-24 12:51:00
7:13 AM,-13.0,-25.6,53,30.60,10.0,Calm,Calm,-,N/A,,Scattered Clouds,0,2013-01-24 13:13:00
7:31 AM,-14.8,-25.6,58,30.60,10.0,Calm,Calm,-,N/A,,Scattered Clouds,0,2013-01-24 13:31:00
7:51 AM,-13.0,-25.6,53,30.60,10.0,Calm,Calm,-,N/A,,Clear,0,2013-01-24 13:51:00
8:12 AM,-13.0,-25.6,53,30.60,10.0,Calm,Calm,-,N/A,,Clear,0,2013-01-24 14:12:00
8:31 AM,-13.0,-25.6,53,30.59,10.0,Calm,Calm,-,N/A,,Clear,0,2013-01-24 14:31:00
8:51 AM,-13.0,-25.6,53,30.58,10.0,Calm,Calm,-,N/A,,Clear,0,2013-01-24 14:51:00
9:12 AM,-13.0,-25.6,53,30.58,10.0,Calm,Calm,-,N/A,,Clear,0,2013-01-24 15:12:00
9:31 AM,-9.4,-23.8,49,30.57,10.0,Calm,Calm,-,N/A,,Clear,0,2013-01-24 15:31:00
9:51 AM,-9.4,-23.8,49,30.55,10.0,Calm,Calm,-,N/A,,Clear,0,2013-01-24 15:51:00
10:11 AM,-7.6,-23.8,45,30.55,10.0,Calm,Calm,-,N/A,,Clear,0,2013-01-24 16:11:00
10:31 AM,-7.6,-22.0,50,30.55,10.0,Calm,Calm,-,N/A,,Clear,0,2013-01-24 16:31:00
10:51 AM,-5.8,-22.0,46,30.55,10.0,Calm,Calm,-,N/A,,Clear,0,2013-01-24 16:51:00
11:12 AM,-4.0,-20.2,46,30.55,10.0,SSE,3.5,-,N/A,,Clear,150,2013-01-24 17:12:00
11:31 AM,-4.0,-18.4,50,30.55,10.0,SW,6.9,-,N/A,,Clear,220,2013-01-24 17:31:00
11:51 AM,-2.2,-18.4,46,30.53,10.0,SSW,3.5,-,N/A,,Mostly Cloudy,210,2013-01-24 17:51:00
12:11 PM,-0.4,-18.4,43,30.52,10.0,South,6.9,-,N/A,,Overcast,190,2013-01-24 18:11:00
12:31 PM,-0.4,-18.4,43,30.51,10.0,SSW,5.8,-,N/A,,Overcast,200,2013-01-24 18:31:00
12:51 PM,-0.4,-20.2,39,30.49,10.0,South,8.1,-,N/A,,Overcast,180,2013-01-24 18:51:00
1:11 PM,1.4,-18.4,39,30.47,10.0,SSW,4.6,-,N/A,,Overcast,200,2013-01-24 19:11:00
1:31 PM,1.4,-18.4,39,30.46,10.0,SSW,4.6,-,N/A,,Overcast,200,2013-01-24 19:31:00
1:51 PM,1.4,-18.4,39,30.46,10.0,SSW,3.5,-,N/A,,Overcast,200,2013-01-24 19:51:00
2:11 PM,1.4,-18.4,39,30.45,10.0,South,3.5,-,N/A,,Overcast,170,2013-01-24 20:11:00
2:31 PM,1.4,-18.4,39,30.44,10.0,South,3.5,-,N/A,,Overcast,180,2013-01-24 20:31:00
2:52 PM,1.4,-18.4,39,30.43,10.0,South,4.6,-,N/A,,Overcast,170,2013-01-24 20:52:00
3:11 PM,1.4,-16.6,43,30.41,10.0,South,4.6,-,N/A,,Overcast,170,2013-01-24 21:11:00
3:33 PM,3.2,-16.6,39,30.40,10.0,SSE,5.8,-,N/A,,Overcast,150,2013-01-24 21:33:00
3:51 PM,3.2,-16.6,39,30.38,10.0,SSE,4.6,-,N/A,,Overcast,150,2013-01-24 21:51:00
4:12 PM,3.2,-14.8,43,30.37,10.0,SSE,4.6,-,N/A,,Overcast,150,2013-01-24 22:12:00
4:32 PM,3.2,-14.8,43,30.36,10.0,SSE,4.6,-,N/A,,Overcast,160,2013-01-24 22:32:00
4:51 PM,3.2,-14.8,43,30.34,10.0,SE,4.6,-,N/A,,Overcast,140,2013-01-24 22:51:00
5:12 PM,3.2,-14.8,43,30.33,10.0,Calm,Calm,-,N/A,,Overcast,0,2013-01-24 23:12:00
5:32 PM,3.2,-14.8,43,30.32,10.0,SSE,5.8,-,N/A,,Overcast,150,2013-01-24 23:32:00
5:52 PM,3.2,-14.8,43,30.31,10.0,Calm,Calm,-,N/A,,Overcast,0,2013-01-24 23:52:00
6:11 PM,3.2,-13.0,47,30.30,10.0,SSE,4.6,-,N/A,,Overcast,150,2013-01-25 00:11:00
6:32 PM,5.0,-13.0,43,30.28,10.0,SE,4.6,-,N/A,,Overcast,140,2013-01-25 00:32:00
6:51 PM,5.0,-11.2,47,30.28,10.0,SE,5.8,-,N/A,,Overcast,130,2013-01-25 00:51:00
7:11 PM,5.0,-9.4,52,30.27,10.0,SE,5.8,-,N/A,,Overcast,140,2013-01-25 01:11:00
7:31 PM,5.0,-7.6,56,30.25,10.0,SE,5.8,-,N/A,,Overcast,140,2013-01-25 01:31:00
7:51 PM,5.0,-7.6,56,30.23,10.0,ESE,4.6,-,N/A,,Overcast,120,2013-01-25 01:51:00
8:11 PM,5.0,-7.6,56,30.21,10.0,SSE,6.9,-,N/A,,Overcast,150,2013-01-25 02:11:00
8:31 PM,5.0,-5.8,61,30.20,10.0,SE,3.5,-,N/A,,Overcast,130,2013-01-25 02:31:00
8:51 PM,5.0,-5.8,61,30.19,10.0,SE,5.8,-,N/A,,Overcast,130,2013-01-25 02:51:00
9:11 PM,5.0,-5.8,61,30.18,10.0,SE,8.1,-,N/A,,Overcast,130,2013-01-25 03:11:00
9:32 PM,5.0,-5.8,61,30.18,10.0,SE,4.6,-,N/A,,Overcast,140,2013-01-25 03:32:00
9:51 PM,5.0,-5.8,61,30.18,10.0,SSE,6.9,-,N/A,,Overcast,150,2013-01-25 03:51:00
10:11 PM,5.0,-5.8,61,30.17,10.0,SSE,6.9,-,N/A,,Overcast,160,2013-01-25 04:11:00
10:31 PM,5.0,-7.6,56,30.15,10.0,South,5.8,-,N/A,,Overcast,170,2013-01-25 04:31:00
10:52 PM,6.8,-7.6,52,30.14,10.0,South,8.1,-,N/A,,Overcast,190,2013-01-25 04:52:00
11:11 PM,6.8,-7.6,52,30.12,10.0,South,5.8,-,N/A,,Overcast,180,2013-01-25 05:11:00
11:32 PM,6.8,-7.6,52,30.12,10.0,South,4.6,-,N/A,,Overcast,180,2013-01-25 05:32:00
11:51 PM,6.8,-7.6,52,30.11,10.0,South,6.9,-,N/A,,Overcast,180,2013-01-25 05:51:00